createdAt,value
2023-12-05T00:01:35.578Z,32.90
2023-12-05T00:04:03.399Z,27.90
2023-12-05T00:06:31.445Z,26.60
2023-12-05T00:08:59.268Z,27.20
2023-12-05T00:11:27.032Z,21.00
2023-12-05T00:13:54.639Z,26.90
2023-12-05T00:16:22.448Z,29.10
2023-12-05T00:18:51.692Z,30.60
2023-12-05T00:21:19.452Z,23.20
2023-12-05T00:23:47.181Z,18.90
2023-12-05T00:26:14.834Z,16.60
2023-12-05T00:28:42.503Z,18.70
2023-12-05T00:31:10.572Z,15.40
2023-12-05T00:33:38.908Z,17.50
2023-12-05T00:36:07.756Z,13.50
2023-12-05T00:38:35.423Z,15.10
2023-12-05T00:41:03.169Z,13.90
2023-12-05T00:43:31.034Z,15.60
2023-12-05T00:45:58.986Z,15.80
2023-12-05T00:48:26.892Z,18.50
2023-12-05T00:50:54.631Z,16.50
2023-12-05T00:53:22.390Z,13.60
2023-12-05T00:55:50.152Z,14.40
2023-12-05T00:58:18.132Z,14.30
2023-12-05T01:00:46.133Z,15.10
2023-12-05T01:03:14.013Z,11.90
2023-12-05T01:05:42.241Z,13.00
2023-12-05T01:08:10.120Z,13.80
2023-12-05T01:10:37.893Z,18.70
2023-12-05T01:13:07.530Z,12.20
2023-12-05T01:15:35.326Z,12.00
2023-12-05T01:18:04.757Z,12.10
2023-12-05T01:20:32.914Z,12.00
2023-12-05T01:23:01.496Z,13.80
2023-12-05T01:28:53.654Z,12.60
2023-12-05T01:31:21.515Z,11.10
2023-12-05T01:33:49.441Z,11.50
2023-12-05T01:36:17.283Z,11.10
2023-12-05T01:38:45.014Z,13.40
2023-12-05T01:41:12.877Z,11.70
2023-12-05T01:43:40.745Z,10.70
2023-12-05T01:46:08.521Z,10.10
2023-12-05T01:48:36.429Z,10.50
2023-12-05T01:51:04.861Z,7.90
2023-12-05T01:53:32.716Z,7.70
2023-12-05T01:56:00.586Z,7.40
2023-12-05T01:58:28.244Z,8.90
2023-12-05T02:00:57.613Z,7.80
2023-12-05T02:03:26.348Z,7.90
2023-12-05T02:05:55.032Z,7.50
2023-12-05T02:08:23.493Z,6.30
2023-12-05T02:10:51.187Z,5.90
2023-12-05T02:13:19.133Z,9.10
2023-12-05T02:15:48.440Z,8.10
2023-12-05T02:18:20.469Z,7.90
2023-12-05T02:21:11.422Z,8.20
2023-12-05T02:24:02.478Z,7.00
2023-12-05T02:26:53.437Z,8.50
2023-12-05T02:29:21.207Z,6.40
2023-12-05T02:31:49.148Z,6.30
2023-12-05T02:34:16.958Z,5.50
2023-12-05T02:37:22.381Z,7.20
2023-12-05T02:39:55.685Z,6.10
2023-12-05T02:42:24.659Z,5.10
2023-12-05T02:44:53.225Z,6.30
2023-12-05T02:47:22.018Z,7.90
2023-12-05T02:49:49.673Z,6.20
2023-12-05T02:52:22.052Z,6.10
2023-12-05T02:54:50.017Z,5.90
2023-12-05T02:57:17.755Z,5.80
2023-12-05T02:59:45.454Z,6.30
2023-12-05T03:02:13.307Z,6.10
2023-12-05T03:04:44.457Z,4.70
2023-12-05T03:07:12.588Z,5.30
2023-12-05T03:09:40.296Z,6.00
2023-12-05T03:12:08.351Z,4.40
2023-12-05T03:14:36.040Z,4.80
2023-12-05T03:17:04.119Z,6.70
2023-12-05T03:19:32.008Z,4.70
2023-12-05T03:21:59.952Z,4.50
2023-12-05T03:24:27.930Z,4.60
2023-12-05T03:26:56.269Z,5.90
2023-12-05T03:29:24.158Z,5.80
2023-12-05T03:31:51.801Z,5.40
2023-12-05T03:34:19.785Z,4.30
2023-12-05T03:36:47.446Z,4.90
2023-12-05T03:39:15.929Z,5.30
2023-12-05T03:41:48.811Z,4.70
2023-12-05T03:44:16.653Z,4.20
2023-12-05T03:46:44.425Z,4.20
2023-12-05T03:51:39.766Z,4.10
2023-12-05T03:54:09.243Z,5.10
2023-12-05T03:56:37.218Z,3.90
2023-12-05T03:59:04.816Z,5.20
2023-12-05T04:01:33.375Z,4.10
2023-12-05T04:04:01.101Z,3.20
2023-12-05T04:06:29.066Z,3.30
2023-12-05T04:08:57.360Z,3.70
2023-12-05T04:11:32.340Z,4.00
2023-12-05T04:14:00.563Z,3.90
2023-12-05T04:16:28.352Z,5.30
2023-12-05T04:18:56.283Z,3.90
2023-12-05T04:21:27.750Z,4.20
2023-12-05T04:23:55.611Z,3.70
2023-12-05T04:26:23.280Z,3.20
2023-12-05T04:28:51.058Z,4.10
2023-12-05T04:31:18.803Z,5.30
2023-12-05T04:33:47.070Z,4.50
2023-12-05T04:36:17.423Z,3.40
2023-12-05T04:38:45.072Z,3.80
2023-12-05T04:41:12.730Z,3.80
2023-12-05T04:43:40.501Z,4.60
2023-12-05T04:46:08.373Z,3.70
2023-12-05T04:48:36.136Z,3.60
2023-12-05T04:51:04.090Z,3.20
2023-12-05T04:53:31.746Z,6.10
2023-12-05T04:55:59.714Z,3.20
2023-12-05T04:58:29.481Z,3.30
2023-12-05T05:00:58.777Z,3.90
2023-12-05T05:03:26.745Z,3.30
2023-12-05T05:05:54.579Z,5.20
2023-12-05T05:08:22.436Z,4.50
2023-12-05T05:10:50.406Z,3.80
2023-12-05T05:13:18.066Z,4.40
2023-12-05T05:15:45.781Z,4.30
2023-12-05T05:18:13.509Z,4.40
2023-12-05T05:20:41.780Z,4.80
2023-12-05T05:23:10.919Z,3.80
2023-12-05T05:25:38.721Z,4.90
2023-12-05T05:28:06.477Z,3.70
2023-12-05T05:30:34.165Z,3.50
2023-12-05T05:33:02.266Z,3.30
2023-12-05T05:35:30.084Z,3.30
2023-12-05T05:37:57.854Z,6.70
2023-12-05T05:40:26.841Z,3.40
2023-12-05T05:42:54.592Z,3.20
2023-12-05T05:45:22.738Z,3.80
2023-12-05T05:47:51.208Z,3.80
2023-12-05T05:50:21.060Z,4.10
2023-12-05T05:52:48.938Z,5.20
2023-12-05T05:55:16.803Z,4.30
2023-12-05T05:57:44.634Z,4.70
2023-12-05T06:00:13.531Z,3.40
2023-12-05T06:02:41.225Z,3.10
2023-12-05T06:05:09.051Z,4.00
2023-12-05T06:07:37.833Z,3.50
2023-12-05T06:10:06.521Z,3.40
2023-12-05T06:12:34.663Z,4.30
2023-12-05T06:15:02.390Z,4.00
2023-12-05T06:17:30.079Z,4.30
2023-12-05T06:19:57.809Z,4.20
2023-12-05T06:22:26.026Z,4.20
2023-12-05T06:24:53.927Z,3.80
2023-12-05T06:27:22.096Z,4.00
2023-12-05T06:29:49.801Z,3.50
2023-12-05T06:32:17.493Z,3.80
2023-12-05T06:34:45.352Z,4.40
2023-12-05T06:37:13.385Z,4.70
2023-12-05T06:39:41.085Z,4.60
2023-12-05T06:42:08.713Z,4.40
2023-12-05T06:44:36.373Z,6.00
2023-12-05T06:50:28.318Z,3.20
2023-12-05T06:53:01.519Z,4.60
2023-12-05T06:55:29.583Z,4.10
2023-12-05T06:57:57.290Z,4.20
2023-12-05T07:00:25.650Z,4.10
2023-12-05T07:02:53.794Z,5.20
2023-12-05T07:05:21.794Z,5.00
2023-12-05T07:07:49.747Z,6.30
2023-12-05T07:10:17.408Z,4.00
2023-12-05T07:12:45.104Z,5.30
2023-12-05T07:15:12.871Z,4.60
2023-12-05T07:17:40.725Z,4.40
2023-12-05T07:20:08.881Z,4.60
2023-12-05T07:22:37.350Z,5.00
2023-12-05T07:25:05.819Z,5.90
2023-12-05T07:27:33.836Z,5.10
2023-12-05T07:30:01.759Z,4.60
2023-12-05T07:32:29.517Z,4.60
2023-12-05T07:34:57.561Z,5.20
2023-12-05T07:37:25.369Z,3.60
2023-12-05T07:39:53.506Z,4.80
2023-12-05T07:42:21.097Z,6.50
2023-12-05T07:44:48.958Z,5.40
2023-12-05T07:47:16.811Z,5.40
2023-12-05T07:49:47.441Z,5.40
2023-12-05T07:52:15.823Z,4.70
2023-12-05T07:54:43.514Z,4.60
2023-12-05T07:57:11.469Z,4.80
2023-12-05T07:59:39.108Z,4.50
2023-12-05T08:02:07.228Z,5.30
2023-12-05T08:04:36.407Z,3.80
2023-12-05T08:07:04.773Z,4.10
2023-12-05T08:09:32.685Z,8.10
2023-12-05T08:12:01.235Z,4.80
2023-12-05T08:14:28.973Z,5.60
2023-12-05T08:16:57.171Z,5.00
2023-12-05T08:19:25.016Z,3.80
2023-12-05T08:21:53.271Z,6.10
2023-12-05T08:24:21.075Z,4.50
2023-12-05T08:26:49.442Z,4.70
2023-12-05T08:29:18.014Z,5.20
2023-12-05T08:31:46.190Z,5.20
2023-12-05T08:34:14.707Z,5.70
2023-12-05T08:36:48.118Z,4.60
2023-12-05T08:39:15.850Z,5.80
2023-12-05T08:41:43.990Z,4.80
2023-12-05T08:44:11.860Z,7.50
2023-12-05T08:46:39.639Z,5.20
2023-12-05T08:49:07.390Z,5.60
2023-12-05T08:51:35.198Z,6.20
2023-12-05T08:54:03.280Z,5.10
2023-12-05T08:56:31.013Z,4.70
2023-12-05T08:58:58.756Z,5.40
2023-12-05T09:01:27.149Z,5.00
2023-12-05T09:03:55.659Z,6.30
2023-12-05T09:06:23.907Z,4.20
2023-12-05T09:08:51.765Z,8.00
2023-12-05T09:11:19.445Z,4.60
2023-12-05T09:13:47.194Z,4.30
2023-12-05T09:16:14.868Z,5.70
2023-12-05T09:18:43.411Z,6.20
2023-12-05T09:21:11.289Z,4.70
2023-12-05T09:23:39.577Z,6.80
2023-12-05T09:26:07.531Z,6.10
2023-12-05T09:28:36.115Z,4.60
2023-12-05T09:31:05.724Z,6.00
2023-12-05T09:33:34.077Z,4.90
2023-12-05T09:36:01.882Z,5.20
2023-12-05T09:38:29.630Z,5.80
2023-12-05T09:40:57.634Z,4.00
2023-12-05T09:43:25.805Z,4.80
2023-12-05T09:46:02.235Z,4.90
2023-12-05T09:48:33.668Z,5.30
2023-12-05T09:51:01.445Z,6.80
2023-12-05T09:53:29.535Z,4.90
2023-12-05T09:55:57.205Z,4.80
2023-12-05T09:58:25.008Z,3.60
2023-12-05T10:00:53.582Z,6.00
2023-12-05T10:03:21.569Z,6.90
2023-12-05T10:05:50.315Z,3.80
2023-12-05T10:08:18.044Z,5.20
2023-12-05T10:10:46.745Z,4.80
2023-12-05T10:13:14.534Z,4.70
2023-12-05T10:15:44.016Z,4.90
2023-12-05T10:18:12.038Z,4.40
2023-12-05T10:20:41.036Z,4.50
2023-12-05T10:23:08.950Z,5.20
2023-12-05T10:25:36.719Z,5.00
2023-12-05T10:28:06.791Z,5.30
2023-12-05T10:30:36.195Z,4.80
2023-12-05T10:33:11.820Z,5.00
2023-12-05T10:35:42.321Z,5.30
2023-12-05T10:38:16.359Z,4.00
2023-12-05T10:40:57.107Z,5.80
2023-12-05T10:43:25.761Z,9.20
2023-12-05T10:45:54.106Z,4.30
2023-12-05T10:48:23.051Z,3.60
2023-12-05T10:50:52.668Z,4.70
2023-12-05T10:53:20.847Z,8.60
2023-12-05T10:55:48.773Z,8.10
2023-12-05T10:58:16.855Z,4.20
2023-12-05T11:00:44.965Z,4.20
2023-12-05T11:03:14.238Z,4.70
2023-12-05T11:05:42.360Z,4.20
2023-12-05T11:08:10.129Z,5.90
2023-12-05T11:10:38.023Z,5.20
2023-12-05T11:13:05.830Z,3.50
2023-12-05T11:15:36.413Z,6.00
2023-12-05T11:18:46.230Z,4.80
2023-12-05T11:21:22.875Z,5.00
2023-12-05T11:24:05.972Z,6.50
2023-12-05T11:27:18.772Z,12.50
2023-12-05T11:30:12.864Z,3.70
2023-12-05T11:32:44.563Z,4.50
2023-12-05T11:38:13.821Z,7.60
2023-12-05T11:40:42.172Z,7.60
2023-12-05T11:43:13.852Z,4.90
2023-12-05T11:45:42.834Z,4.40
2023-12-05T11:48:12.388Z,4.00
2023-12-05T11:50:44.590Z,5.30
2023-12-05T11:53:16.593Z,4.80
2023-12-05T11:55:47.402Z,4.70
2023-12-05T11:58:34.857Z,6.80
2023-12-05T12:01:04.636Z,4.50
2023-12-05T12:03:49.006Z,7.60
2023-12-05T12:06:24.730Z,5.20
2023-12-05T12:08:55.631Z,5.00
2023-12-05T12:11:23.947Z,3.90
2023-12-05T12:13:51.787Z,6.40
2023-12-05T12:16:20.533Z,4.80
2023-12-05T12:18:53.760Z,4.40
2023-12-05T12:21:32.671Z,3.70
2023-12-05T12:24:00.755Z,4.40
2023-12-05T12:26:33.660Z,4.30
2023-12-05T12:29:09.148Z,6.80
2023-12-05T12:31:37.003Z,5.50
2023-12-05T12:34:07.250Z,3.60
2023-12-05T12:36:36.354Z,6.10
2023-12-05T12:39:04.199Z,4.70
2023-12-05T12:41:32.113Z,4.30
2023-12-05T12:44:00.045Z,3.90
2023-12-05T12:46:27.690Z,6.70
2023-12-05T12:48:58.066Z,3.40
2023-12-05T12:51:25.893Z,3.70
2023-12-05T12:53:54.069Z,3.80
2023-12-05T12:56:22.289Z,6.40
2023-12-05T12:58:50.471Z,3.20
2023-12-05T13:01:19.271Z,5.00
2023-12-05T13:03:47.309Z,3.80
2023-12-05T13:06:17.654Z,4.70
2023-12-05T13:08:45.652Z,6.20
2023-12-05T13:11:13.598Z,7.10
2023-12-05T13:13:41.225Z,6.40
2023-12-05T13:16:10.252Z,8.00
2023-12-05T13:18:47.110Z,7.10
2023-12-05T13:21:19.095Z,4.70
2023-12-05T13:26:14.747Z,6.30
2023-12-05T13:28:43.130Z,6.00
2023-12-05T13:31:10.934Z,6.40
2023-12-05T13:33:39.208Z,4.80
2023-12-05T13:36:07.858Z,6.20
2023-12-05T13:38:35.618Z,6.00
2023-12-05T13:41:03.375Z,5.70
2023-12-05T13:43:31.140Z,6.30
2023-12-05T13:45:59.248Z,6.00
2023-12-05T13:48:27.131Z,4.90
2023-12-05T13:50:54.949Z,5.70
2023-12-05T13:53:24.860Z,5.00
2023-12-05T13:55:52.719Z,4.60
2023-12-05T13:58:20.793Z,6.00
2023-12-05T14:00:48.796Z,3.90
2023-12-05T14:03:16.794Z,6.30
2023-12-05T14:05:44.595Z,5.60
2023-12-05T14:08:12.572Z,6.10
2023-12-05T14:10:40.638Z,5.00
2023-12-05T14:13:08.333Z,4.40
2023-12-05T14:15:36.131Z,7.10
2023-12-05T14:18:04.505Z,7.80
2023-12-05T14:20:32.302Z,5.40
2023-12-05T14:23:00.090Z,7.50
2023-12-05T14:25:28.152Z,4.60
2023-12-05T14:27:56.031Z,5.00
2023-12-05T14:30:23.827Z,6.20
2023-12-05T14:32:51.932Z,7.50
2023-12-05T14:35:22.229Z,5.70
2023-12-05T14:37:50.034Z,4.60
2023-12-05T14:40:17.969Z,4.50
2023-12-05T14:42:45.914Z,6.00
2023-12-05T14:45:13.905Z,7.30
2023-12-05T14:47:42.029Z,6.20
2023-12-05T14:50:10.350Z,6.40
2023-12-05T14:52:38.957Z,4.30
2023-12-05T14:55:07.353Z,7.80
2023-12-05T14:57:35.223Z,10.40
2023-12-05T15:00:04.174Z,8.40
2023-12-05T15:02:31.921Z,7.40
2023-12-05T15:04:59.697Z,9.20
2023-12-05T15:07:27.510Z,10.80
2023-12-05T15:09:55.334Z,9.10
2023-12-05T15:12:23.733Z,9.10
2023-12-05T15:14:51.603Z,8.80
2023-12-05T15:17:20.073Z,9.70
2023-12-05T15:20:17.803Z,8.00
2023-12-05T15:22:35.909Z,10.30
2023-12-05T15:25:05.739Z,7.10
2023-12-05T15:27:35.041Z,10.70
2023-12-05T15:30:04.611Z,8.40
2023-12-05T15:32:32.406Z,6.90
2023-12-05T15:35:00.360Z,8.90
2023-12-05T15:37:29.451Z,9.90
2023-12-05T15:39:57.230Z,7.10
2023-12-05T15:42:25.044Z,7.50
2023-12-05T15:44:52.826Z,9.00
2023-12-05T15:47:21.110Z,8.50
2023-12-05T15:49:49.405Z,7.40
2023-12-05T15:52:17.750Z,8.80
2023-12-05T15:54:45.437Z,7.50
2023-12-05T15:57:13.076Z,6.70
2023-12-05T15:59:40.956Z,6.80
2023-12-05T16:02:08.767Z,7.90
2023-12-05T16:04:36.591Z,10.40
2023-12-05T16:07:06.003Z,9.20
2023-12-05T16:09:34.090Z,9.40
2023-12-05T16:12:02.216Z,9.10
2023-12-05T16:14:32.659Z,11.90
2023-12-05T16:17:00.822Z,8.20
2023-12-05T16:19:28.578Z,9.60
2023-12-05T16:21:56.477Z,6.10
2023-12-05T16:24:24.479Z,7.00
2023-12-05T16:26:52.996Z,8.30
2023-12-05T16:29:21.625Z,10.00
2023-12-05T16:31:51.093Z,9.70
2023-12-05T16:34:18.936Z,7.70
2023-12-05T16:36:46.988Z,8.00
2023-12-05T16:39:16.073Z,10.10
2023-12-05T16:41:43.994Z,7.80
2023-12-05T16:44:11.746Z,10.70
2023-12-05T16:46:39.414Z,8.40
2023-12-05T16:49:07.582Z,7.40
2023-12-05T16:51:35.481Z,8.60
2023-12-05T16:54:03.217Z,7.60
2023-12-05T16:56:31.001Z,9.90
2023-12-05T16:58:58.743Z,7.20
2023-12-05T17:01:26.653Z,8.40
2023-12-05T17:03:54.674Z,9.80
2023-12-05T17:06:22.551Z,9.50
2023-12-05T17:08:50.205Z,8.90
2023-12-05T17:11:18.035Z,12.20
2023-12-05T17:13:46.249Z,7.30
2023-12-05T17:16:14.332Z,10.00
2023-12-05T17:18:43.064Z,11.70
2023-12-05T17:21:10.869Z,12.90
2023-12-05T17:23:38.653Z,10.00
2023-12-05T17:26:09.573Z,7.50
2023-12-05T17:28:37.344Z,9.10
2023-12-05T17:31:06.374Z,10.00
2023-12-05T17:33:34.225Z,7.90
2023-12-05T17:36:02.065Z,8.50
2023-12-05T17:38:30.028Z,15.40
2023-12-05T17:40:58.607Z,16.50
2023-12-05T17:43:26.984Z,17.10
2023-12-05T17:45:57.692Z,12.60
2023-12-05T17:48:28.145Z,11.20
2023-12-05T17:50:56.139Z,9.00
2023-12-05T17:53:24.689Z,9.50
2023-12-05T17:55:52.442Z,8.70
2023-12-05T17:58:20.200Z,10.40
2023-12-05T18:00:48.236Z,9.20
2023-12-05T18:03:16.293Z,11.80
2023-12-05T18:05:44.143Z,11.50
2023-12-05T18:08:12.165Z,13.90
2023-12-05T18:10:41.034Z,13.50
2023-12-05T18:13:08.967Z,13.50
2023-12-05T18:15:37.227Z,11.80
2023-12-05T18:18:05.799Z,16.10
2023-12-05T18:20:33.596Z,11.80
2023-12-05T18:23:01.261Z,14.00
2023-12-05T18:25:28.943Z,14.40
2023-12-05T18:27:56.970Z,10.30
2023-12-05T18:30:25.662Z,16.70
2023-12-05T18:32:53.513Z,11.00
2023-12-05T18:35:21.395Z,9.00
2023-12-05T18:37:49.463Z,11.10
2023-12-05T18:40:17.961Z,12.10
2023-12-05T18:42:45.827Z,9.20
2023-12-05T18:45:13.573Z,11.30
2023-12-05T18:47:41.263Z,14.60
2023-12-05T18:50:09.818Z,12.10
2023-12-05T18:52:38.187Z,15.90
2023-12-05T18:55:07.423Z,15.40
2023-12-05T18:57:35.442Z,12.00
2023-12-05T19:00:03.633Z,11.10
2023-12-05T19:02:31.405Z,8.80
2023-12-05T19:04:59.393Z,16.20
2023-12-05T19:10:51.329Z,17.10
2023-12-05T19:13:18.974Z,11.60
2023-12-05T19:15:46.758Z,14.10
2023-12-05T19:18:15.646Z,18.10
2023-12-05T19:20:43.495Z,10.70
2023-12-05T19:23:11.474Z,11.70
2023-12-05T19:25:40.145Z,7.90
2023-12-05T19:28:08.781Z,10.20
2023-12-05T19:30:41.680Z,9.10
2023-12-05T19:33:14.804Z,7.70
2023-12-05T19:35:44.970Z,9.80
2023-12-05T19:38:12.894Z,5.70
2023-12-05T19:40:40.634Z,9.60
2023-12-05T19:43:09.503Z,10.50
2023-12-05T19:45:37.335Z,8.10
2023-12-05T19:48:05.553Z,6.00
2023-12-05T19:50:33.578Z,8.10
2023-12-05T19:53:01.527Z,9.60
2023-12-05T19:55:29.185Z,7.70
2023-12-05T19:57:57.183Z,6.30
2023-12-05T20:00:25.941Z,5.10
2023-12-05T20:02:53.835Z,5.10
2023-12-05T20:05:21.800Z,5.30
2023-12-05T20:07:50.277Z,8.10
2023-12-05T20:10:18.204Z,9.70
2023-12-05T20:12:46.186Z,8.20
2023-12-05T20:15:14.332Z,8.30
2023-12-05T20:17:42.390Z,7.10
2023-12-05T20:20:10.851Z,6.30
2023-12-05T20:22:38.703Z,5.80
2023-12-05T20:25:07.249Z,6.10
2023-12-05T20:27:36.600Z,10.50
2023-12-05T20:30:04.940Z,7.40
2023-12-05T20:32:32.610Z,7.60
2023-12-05T20:35:00.423Z,6.20
2023-12-05T20:37:28.245Z,5.40
2023-12-05T20:39:56.108Z,13.40
2023-12-05T20:42:27.782Z,4.10
2023-12-05T20:44:55.717Z,9.00
2023-12-05T20:47:23.485Z,8.50
2023-12-05T20:49:51.212Z,10.50
2023-12-05T20:52:19.578Z,7.70
2023-12-05T20:54:47.444Z,6.10
2023-12-05T20:57:15.665Z,9.90
2023-12-05T20:59:43.437Z,11.30
2023-12-05T21:02:11.120Z,6.00
2023-12-05T21:04:39.306Z,11.00
2023-12-05T21:07:07.159Z,5.80
2023-12-05T21:09:34.864Z,10.50
2023-12-05T21:12:02.605Z,11.10
2023-12-05T21:14:30.174Z,8.70
2023-12-05T21:16:58.469Z,7.60
2023-12-05T21:19:26.045Z,7.30
2023-12-05T21:21:53.846Z,7.70
2023-12-05T21:24:21.532Z,6.80
2023-12-05T21:26:49.526Z,10.00
2023-12-05T21:29:17.323Z,12.80
2023-12-05T21:31:44.948Z,10.50
2023-12-05T21:34:12.636Z,11.10
2023-12-05T21:36:40.446Z,7.10
2023-12-05T21:39:08.468Z,5.80
2023-12-05T21:41:36.152Z,8.40
2023-12-05T21:44:04.254Z,8.00
2023-12-05T21:46:32.792Z,5.40
2023-12-05T21:49:01.270Z,7.10
2023-12-05T21:51:29.981Z,9.00
2023-12-05T21:54:01.014Z,9.10
2023-12-05T21:56:30.207Z,13.00
2023-12-05T21:58:57.755Z,10.50
2023-12-05T22:01:26.547Z,5.90
2023-12-05T22:03:54.232Z,9.10
2023-12-05T22:06:22.119Z,7.50
2023-12-05T22:08:49.643Z,8.50
2023-12-05T22:11:17.485Z,17.40
2023-12-05T22:13:47.115Z,9.10
2023-12-05T22:16:15.212Z,6.40
2023-12-05T22:18:45.822Z,4.60
2023-12-05T22:21:13.922Z,11.60
2023-12-05T22:23:42.289Z,8.00
2023-12-05T22:26:10.368Z,9.30
2023-12-05T22:28:38.005Z,9.90
2023-12-05T22:31:06.378Z,9.00
2023-12-05T22:33:34.410Z,5.10
2023-12-05T22:36:02.186Z,8.60
2023-12-05T22:38:29.800Z,10.90
2023-12-05T22:40:57.361Z,6.90
2023-12-05T22:43:25.020Z,8.80
2023-12-05T22:45:52.590Z,9.60
2023-12-05T22:48:20.245Z,6.50
2023-12-05T22:50:48.080Z,9.20
2023-12-05T22:53:15.614Z,10.40
2023-12-05T22:55:43.397Z,8.40
2023-12-05T22:58:12.055Z,11.30
2023-12-05T23:00:40.781Z,10.30
2023-12-05T23:03:08.568Z,10.00
2023-12-05T23:05:37.301Z,16.80
2023-12-05T23:08:05.183Z,8.00
2023-12-05T23:10:33.882Z,9.30
2023-12-05T23:13:01.739Z,12.60
2023-12-05T23:15:30.586Z,7.80
2023-12-05T23:17:58.806Z,7.30
2023-12-05T23:20:26.564Z,7.10
2023-12-05T23:22:54.884Z,12.00
2023-12-05T23:25:22.454Z,8.40
2023-12-05T23:27:51.006Z,8.60
2023-12-05T23:30:18.636Z,5.30
2023-12-05T23:32:46.386Z,9.10
2023-12-05T23:35:14.786Z,7.20
2023-12-05T23:37:42.568Z,11.80
2023-12-05T23:40:10.694Z,5.20
2023-12-05T23:42:38.402Z,17.60
2023-12-05T23:45:06.389Z,9.40
2023-12-05T23:47:33.988Z,11.00
2023-12-05T23:50:01.557Z,7.60
2023-12-05T23:52:29.187Z,11.10
2023-12-05T23:54:57.635Z,8.80
2023-12-05T23:57:25.569Z,11.10
2023-12-05T23:59:53.197Z,9.40
